Time;durP1;ratioP1;P1;durP2;ratioP2;P2;SDS_P1;SDS_P2;PMS_P1;PMS_P2;Temp;Humidity;BMP_temperature;BMP_pressure;BME280_temperature;BME280_humidity;BME280_pressure;Samples;Min_cycle;Max_cycle;Signal;HPM_P1;HPM_P2
2020/12/29 00:00:54;;;;;;;5.32;3.60;;;2.50;99.90;;;;;;5016210;28;20049;-77
2020/12/29 00:03:20;;;;;;;6.18;3.60;;;2.50;99.90;;;;;;5015869;28;20045;-77
2020/12/29 00:05:47;;;;;;;4.80;3.17;;;2.50;99.90;;;;;;5015517;28;20038;-78
2020/12/29 00:08:14;;;;;;;4.85;2.92;;;2.50;99.90;;;;;;5017105;28;20034;-78
2020/12/29 00:10:41;;;;;;;5.28;2.40;;;2.60;99.90;;;;;;5016389;28;20494;-77
2020/12/29 00:13:07;;;;;;;5.53;2.60;;;2.60;99.90;;;;;;5014961;28;20037;-76
2020/12/29 00:15:38;;;;;;;15.80;5.82;;;2.60;99.90;;;;;;5014929;28;20030;-77
2020/12/29 00:18:04;;;;;;;164.13;58.40;;;2.70;99.90;;;;;;5015697;28;20045;-76
2020/12/29 00:20:30;;;;;;;71.20;24.63;;;2.70;99.90;;;;;;5015956;28;20042;-77
2020/12/29 00:22:57;;;;;;;53.38;18.58;;;2.60;99.90;;;;;;5015618;28;20037;-79
2020/12/29 00:25:23;;;;;;;12.65;5.22;;;2.60;99.90;;;;;;5015846;28;20041;-77
2020/12/29 00:27:49;;;;;;;50.75;17.58;;;2.60;99.90;;;;;;5015916;28;20383;-78
2020/12/29 00:30:15;;;;;;;55.33;18.70;;;2.60;99.90;;;;;;5015056;28;20479;-79
2020/12/29 00:32:41;;;;;;;38.97;14.80;;;2.50;99.90;;;;;;5016215;28;20105;-78
2020/12/29 00:35:08;;;;;;;10.80;6.22;;;2.50;99.90;;;;;;5015123;28;20033;-79
2020/12/29 00:37:34;;;;;;;8.57;4.20;;;2.60;99.90;;;;;;5016239;28;20030;-77
2020/12/29 00:40:00;;;;;;;15.40;5.65;;;2.50;99.90;;;;;;5015357;28;20030;-78
2020/12/29 00:42:31;;;;;;;34.15;15.45;;;2.50;99.90;;;;;;5015333;28;20510;-80
2020/12/29 00:44:57;;;;;;;27.57;8.77;;;2.50;99.90;;;;;;5015512;28;20478;-79
2020/12/29 00:47:23;;;;;;;48.10;18.23;;;2.50;99.90;;;;;;5015621;28;20293;-78
2020/12/29 00:49:49;;;;;;;12.48;5.60;;;2.50;99.90;;;;;;5014885;28;20049;-79
2020/12/29 00:52:16;;;;;;;15.27;7.63;;;2.50;99.90;;;;;;5030004;28;20049;-77
2020/12/29 00:54:51;;;;;;;163.10;60.58;;;2.40;99.90;;;;;;5014496;28;20502;-78
2020/12/29 00:57:30;;;;;;;70.22;27.83;;;2.40;99.90;;;;;;5012983;28;20038;-78
2020/12/29 00:59:57;;;;;;;16.40;8.93;;;2.40;99.90;;;;;;5016690;28;20057;-79
2020/12/29 01:02:23;;;;;;;11.23;5.25;;;2.40;99.90;;;;;;5016283;28;20034;-78
2020/12/29 01:05:16;;;;;;;120.57;44.60;;;2.40;99.90;;;;;;5014215;28;20049;-78
2020/12/29 01:07:43;;;;;;;83.63;31.35;;;2.40;99.90;;;;;;5013303;28;20042;-77
2020/12/29 01:10:09;;;;;;;72.18;29.48;;;2.40;99.90;;;;;;4997083;28;20057;-77
2020/12/29 01:12:49;;;;;;;46.17;19.08;;;2.40;99.90;;;;;;5013855;28;20046;-78
2020/12/29 01:15:15;;;;;;;11.23;5.38;;;2.50;99.90;;;;;;5013107;28;20607;-78
2020/12/29 01:18:00;;;;;;;129.07;47.95;;;2.50;99.90;;;;;;5013235;28;20057;-77
2020/12/29 01:20:27;;;;;;;23.63;9.88;;;2.50;99.90;;;;;;5014548;28;20041;-78
2020/12/29 01:22:53;;;;;;;10.35;4.65;;;2.50;99.90;;;;;;5014809;28;20037;-77
2020/12/29 01:25:21;;;;;;;20.55;8.38;;;2.60;99.90;;;;;;5014544;28;20030;-76
2020/12/29 01:27:47;;;;;;;49.35;19.58;;;2.60;99.90;;;;;;5014592;28;20375;-77
2020/12/29 01:30:14;;;;;;;25.23;9.13;;;2.70;99.90;;;;;;5013634;28;20057;-77
2020/12/29 01:32:41;;;;;;;20.90;8.50;;;2.70;99.90;;;;;;5014350;28;20041;-77
2020/12/29 01:35:07;;;;;;;186.50;64.82;;;2.70;99.90;;;;;;5012373;28;20399;-77
2020/12/29 01:37:35;;;;;;;205.13;74.35;;;2.70;99.90;;;;;;5014034;28;20053;-76
2020/12/29 01:40:05;;;;;;;33.33;14.38;;;2.70;99.90;;;;;;5014129;28;20034;-76
2020/12/29 01:42:31;;;;;;;20.60;9.10;;;2.70;99.90;;;;;;5014250;28;20030;-77
2020/12/29 01:44:58;;;;;;;33.20;12.45;;;2.70;99.90;;;;;;5014013;28;20279;-77
2020/12/29 01:47:25;;;;;;;11.57;5.55;;;2.80;99.90;;;;;;5012821;28;20041;-78
2020/12/29 01:49:53;;;;;;;23.50;9.02;;;2.80;99.90;;;;;;5013925;28;20391;-77
2020/12/29 01:52:19;;;;;;;9.40;4.35;;;2.80;99.90;;;;;;5013475;28;20383;-77
2020/12/29 01:54:45;;;;;;;25.13;10.80;;;2.80;99.90;;;;;;5016383;28;20029;-77
2020/12/29 01:57:12;;;;;;;36.30;16.23;;;2.80;99.90;;;;;;5013217;28;20490;-77
2020/12/29 01:59:38;;;;;;;109.95;47.25;;;2.90;99.90;;;;;;5013303;28;20054;-76
2020/12/29 02:02:05;;;;;;;13.52;5.63;;;3.00;99.90;;;;;;5013200;28;20034;-78
2020/12/29 02:04:31;;;;;;;6.28;3.25;;;3.00;99.90;;;;;;5013632;28;20038;-77
2020/12/29 02:06:58;;;;;;;20.23;8.95;;;3.10;99.90;;;;;;5012326;28;20037;-78
2020/12/29 02:09:24;;;;;;;18.83;9.00;;;3.10;99.90;;;;;;5013486;28;20030;-77
2020/12/29 02:11:51;;;;;;;7.55;3.95;;;3.10;99.90;;;;;;5012473;28;20518;-77
2020/12/29 02:14:17;;;;;;;12.35;6.63;;;3.10;99.90;;;;;;5022556;28;20034;-77
2020/12/29 02:16:43;;;;;;;29.35;13.00;;;3.10;99.90;;;;;;5013560;28;20030;-77
2020/12/29 02:19:10;;;;;;;8.60;3.83;;;3.20;99.90;;;;;;5011674;28;20033;-76
2020/12/29 02:21:38;;;;;;;9.55;4.47;;;3.20;99.90;;;;;;5013390;28;20029;-77
2020/12/29 02:24:07;;;;;;;8.75;4.78;;;3.20;99.90;;;;;;5013077;28;20432;-76
2020/12/29 02:26:35;;;;;;;48.83;17.85;;;3.30;99.90;;;;;;5013726;28;20483;-76
2020/12/29 02:29:02;;;;;;;13.70;6.05;;;3.30;99.90;;;;;;5013105;28;20418;-76
2020/12/29 02:31:35;;;;;;;11.82;5.32;;;3.30;99.90;;;;;;5121285;27;20384;-76
2020/12/29 02:34:02;;;;;;;5.05;1.95;;;3.30;99.90;;;;;;5088076;28;20036;-77
2020/12/29 02:36:28;;;;;;;9.27;4.50;;;3.30;99.90;;;;;;5055043;28;20532;-77
2020/12/29 02:38:54;;;;;;;39.75;16.30;;;3.30;99.90;;;;;;5089997;28;20029;-76
2020/12/29 02:41:20;;;;;;;37.63;14.73;;;3.30;99.90;;;;;;5078573;28;20040;-76
2020/12/29 02:43:47;;;;;;;7.32;3.45;;;3.20;99.90;;;;;;5100084;28;20032;-76
2020/12/29 02:46:14;;;;;;;45.50;15.90;;;3.20;99.90;;;;;;5101861;28;20024;-77
2020/12/29 02:48:40;;;;;;;11.23;3.88;;;3.30;99.90;;;;;;5098925;28;20031;-76
2020/12/29 02:51:07;;;;;;;27.17;10.00;;;3.40;99.90;;;;;;5106975;28;20054;-76
2020/12/29 02:53:33;;;;;;;9.75;4.03;;;3.40;99.90;;;;;;5090045;28;20025;-77
2020/12/29 02:56:00;;;;;;;30.42;9.20;;;3.40;99.90;;;;;;5081438;28;20370;-77
2020/12/29 02:58:26;;;;;;;198.80;67.05;;;3.30;99.90;;;;;;5089581;28;20032;-77
2020/12/29 03:00:52;;;;;;;134.15;47.38;;;3.40;99.90;;;;;;5089553;28;20040;-77
2020/12/29 03:03:18;;;;;;;17.30;7.82;;;3.40;99.90;;;;;;5053923;28;20044;-76
2020/12/29 03:05:44;;;;;;;10.73;4.80;;;3.40;99.90;;;;;;5070777;28;20396;-76
2020/12/29 03:08:11;;;;;;;61.67;24.10;;;3.50;99.90;;;;;;5087838;28;20035;-77
2020/12/29 03:10:37;;;;;;;10.73;5.03;;;3.50;99.90;;;;;;5071028;28;20055;-78
2020/12/29 03:13:03;;;;;;;4.72;2.65;;;3.50;99.90;;;;;;5108125;28;20031;-78
2020/12/29 03:15:30;;;;;;;8.13;2.08;;;3.50;99.90;;;;;;5089315;28;20385;-77
2020/12/29 03:17:56;;;;;;;6.18;3.40;;;3.50;99.90;;;;;;5078316;28;20043;-77
2020/12/29 03:20:22;;;;;;;6.35;3.22;;;3.50;99.90;;;;;;5104500;28;20039;-76
2020/12/29 03:22:49;;;;;;;5.47;2.83;;;3.50;99.90;;;;;;5084985;28;20273;-76
2020/12/29 03:25:15;;;;;;;3.28;1.20;;;3.40;99.90;;;;;;5089733;28;20054;-75
2020/12/29 03:27:41;;;;;;;2.80;0.95;;;3.50;99.90;;;;;;5070149;28;20484;-76
2020/12/29 03:30:07;;;;;;;2.85;1.20;;;3.50;99.90;;;;;;5079851;28;20064;-76
2020/12/29 03:32:33;;;;;;;2.55;1.23;;;3.40;99.90;;;;;;5068771;28;20029;-76
2020/12/29 03:34:59;;;;;;;3.58;0.93;;;3.40;99.90;;;;;;5050266;28;20037;-77
2020/12/29 03:37:26;;;;;;;2.13;0.77;;;3.40;99.90;;;;;;5060888;28;20035;-77
2020/12/29 03:39:52;;;;;;;1.50;0.80;;;3.50;99.90;;;;;;5050339;28;20036;-77
2020/12/29 03:42:18;;;;;;;3.78;0.82;;;3.50;99.90;;;;;;5023872;28;20361;-77
2020/12/29 03:44:44;;;;;;;1.58;0.88;;;3.50;99.90;;;;;;5059350;28;20415;-77
2020/12/29 03:47:10;;;;;;;2.15;1.02;;;3.60;99.90;;;;;;5067487;28;20032;-76
2020/12/29 03:49:37;;;;;;;1.95;0.80;;;3.50;99.90;;;;;;5054273;28;20045;-76
2020/12/29 03:52:03;;;;;;;3.25;1.00;;;3.60;99.90;;;;;;5055978;28;20036;-76
2020/12/29 03:54:29;;;;;;;2.03;0.80;;;3.50;99.90;;;;;;5066938;28;20029;-77
2020/12/29 03:56:55;;;;;;;2.75;0.88;;;3.50;99.90;;;;;;5036227;28;20037;-76
2020/12/29 03:59:22;;;;;;;2.28;0.98;;;3.60;99.90;;;;;;5035837;28;20040;-77
2020/12/29 04:01:48;;;;;;;1.63;0.77;;;3.60;99.90;;;;;;5055413;28;20041;-77
2020/12/29 04:04:14;;;;;;;1.40;0.88;;;3.50;99.90;;;;;;5054189;28;20462;-76
2020/12/29 04:06:40;;;;;;;2.88;0.80;;;3.60;99.90;;;;;;5054638;28;20484;-76
2020/12/29 04:09:06;;;;;;;1.67;0.82;;;3.50;99.90;;;;;;5054696;28;20401;-76
2020/12/29 04:11:32;;;;;;;2.15;0.95;;;3.50;99.90;;;;;;5036132;28;20410;-77
2020/12/29 04:13:59;;;;;;;2.95;1.60;;;3.60;99.90;;;;;;5054312;28;20434;-79
2020/12/29 04:16:25;;;;;;;2.42;0.70;;;3.60;99.90;;;;;;5061541;28;20033;-77
2020/12/29 04:18:51;;;;;;;1.95;0.85;;;3.60;99.90;;;;;;5037654;28;20512;-76
2020/12/29 04:21:17;;;;;;;1.13;0.45;;;3.70;99.90;;;;;;5060308;28;20516;-77
2020/12/29 04:23:44;;;;;;;1.02;0.30;;;3.60;99.90;;;;;;5071107;28;20033;-76
2020/12/29 04:26:14;;;;;;;0.80;0.45;;;3.70;99.90;;;;;;5035885;28;20037;-76
2020/12/29 04:28:40;;;;;;;0.40;0.25;;;3.70;99.90;;;;;;5054272;28;20350;-76
2020/12/29 04:31:14;;;;;;;0.45;0.20;;;3.70;99.90;;;;;;5053379;28;20054;-77
2020/12/29 04:33:41;;;;;;;0.47;0.20;;;3.70;99.90;;;;;;5054605;28;20037;-76
2020/12/29 04:36:07;;;;;;;0.52;0.28;;;3.70;99.90;;;;;;5026642;28;20048;-76
2020/12/29 04:38:34;;;;;;;0.93;0.20;;;3.70;99.90;;;;;;5065413;28;20033;-76
2020/12/29 04:41:00;;;;;;;0.57;0.22;;;3.70;99.90;;;;;;5053684;28;20136;-78
2020/12/29 04:43:27;;;;;;;0.47;0.10;;;3.70;99.90;;;;;;5054056;28;20025;-76
2020/12/29 04:45:58;;;;;;;0.50;0.20;;;3.60;99.90;;;;;;5035555;28;20049;-76
2020/12/29 04:48:25;;;;;;;0.57;0.20;;;3.60;99.90;;;;;;5053473;28;20473;-76
2020/12/29 04:50:52;;;;;;;0.65;0.20;;;3.60;99.90;;;;;;5053900;28;20037;-76
2020/12/29 04:53:21;;;;;;;1.17;0.20;;;3.60;99.90;;;;;;5052711;28;20132;-76
2020/12/29 04:55:53;;;;;;;0.40;0.10;;;3.50;99.90;;;;;;5053839;28;20048;-75
2020/12/29 04:58:19;;;;;;;6.10;2.35;;;3.50;99.90;;;;;;5067917;28;20036;-77
2020/12/29 05:00:47;;;;;;;24.35;8.80;;;3.50;99.90;;;;;;5054009;28;20056;-76
2020/12/29 05:03:13;;;;;;;2.88;1.13;;;3.40;99.90;;;;;;5053453;28;20029;-76
2020/12/29 05:05:40;;;;;;;7.65;3.00;;;3.40;99.90;;;;;;5036024;28;20036;-76
2020/12/29 05:08:06;;;;;;;5.10;2.00;;;3.30;99.90;;;;;;5053312;28;20041;-76
2020/12/29 05:10:32;;;;;;;2.60;0.80;;;3.30;99.90;;;;;;5053559;28;20044;-75
2020/12/29 05:12:58;;;;;;;2.35;0.38;;;3.30;99.90;;;;;;5035563;28;20045;-76
2020/12/29 05:15:25;;;;;;;2.20;0.70;;;3.30;99.90;;;;;;5052979;28;20037;-76
2020/12/29 05:17:51;;;;;;;3.65;1.67;;;3.20;99.90;;;;;;5053568;28;20033;-76
2020/12/29 05:20:21;;;;;;;0.88;0.47;;;3.20;99.90;;;;;;5054169;28;20048;-76
2020/12/29 05:22:49;;;;;;;2.42;0.90;;;3.20;99.90;;;;;;5036415;28;20036;-76
2020/12/29 05:25:17;;;;;;;3.67;1.00;;;3.20;99.90;;;;;;5053146;28;20039;-76
2020/12/29 05:27:44;;;;;;;6.30;1.73;;;3.20;99.90;;;;;;5053333;28;20025;-77
2020/12/29 05:30:10;;;;;;;1.00;0.40;;;3.20;99.90;;;;;;5055177;28;20466;-77
2020/12/29 05:32:38;;;;;;;3.58;1.13;;;3.20;99.90;;;;;;5055568;28;20040;-76
2020/12/29 05:35:12;;;;;;;2.88;0.73;;;3.10;99.90;;;;;;5052771;28;20040;-77
2020/12/29 05:37:42;;;;;;;8.88;3.33;;;3.10;99.90;;;;;;5063108;28;20195;-77
2020/12/29 05:40:22;;;;;;;7.78;2.20;;;3.20;99.90;;;;;;5057537;28;20044;-77
2020/12/29 05:42:49;;;;;;;6.35;1.88;;;3.20;99.90;;;;;;5035435;28;20192;-76
2020/12/29 05:45:16;;;;;;;1.00;0.30;;;3.20;99.90;;;;;;5034981;28;20041;-77
2020/12/29 05:47:51;;;;;;;2.60;0.80;;;3.20;99.90;;;;;;5052364;28;20021;-77
2020/12/29 05:50:19;;;;;;;10.23;2.88;;;3.20;99.90;;;;;;5056647;28;20036;-76
2020/12/29 05:53:05;;;;;;;2.70;0.70;;;3.20;99.90;;;;;;5069296;28;20036;-76
2020/12/29 05:55:32;;;;;;;7.85;2.45;;;3.20;99.90;;;;;;5052397;28;20033;-76
2020/12/29 05:58:07;;;;;;;29.92;11.10;;;3.20;99.90;;;;;;5058306;28;20421;-77
2020/12/29 06:00:36;;;;;;;17.48;5.32;;;3.20;99.90;;;;;;5057699;28;20048;-77
2020/12/29 06:03:05;;;;;;;2.83;1.38;;;3.10;99.90;;;;;;5051939;28;20028;-77
2020/12/29 06:05:33;;;;;;;5.05;1.98;;;3.10;99.90;;;;;;5052408;28;20029;-77
2020/12/29 06:08:01;;;;;;;2.95;1.00;;;3.10;99.90;;;;;;5047905;28;20048;-77
2020/12/29 06:10:29;;;;;;;3.67;1.08;;;3.10;99.90;;;;;;5052854;28;20051;-77
2020/12/29 06:12:57;;;;;;;9.65;3.15;;;3.10;99.90;;;;;;5035032;28;20044;-77
2020/12/29 06:15:30;;;;;;;9.65;2.75;;;3.10;99.90;;;;;;5052181;28;20378;-77
2020/12/29 06:18:03;;;;;;;13.18;4.72;;;3.10;99.90;;;;;;5052401;28;20474;-77
2020/12/29 06:20:33;;;;;;;56.35;15.68;;;3.10;99.90;;;;;;5034815;28;20041;-77
2020/12/29 06:23:01;;;;;;;24.45;8.93;;;3.10;99.90;;;;;;5063137;28;20025;-78
2020/12/29 06:25:35;;;;;;;8.60;2.55;;;3.00;99.90;;;;;;5052532;28;20356;-78
2020/12/29 06:28:05;;;;;;;2.55;1.00;;;3.10;99.90;;;;;;5075728;28;20032;-78
2020/12/29 06:30:33;;;;;;;8.98;3.40;;;3.10;99.90;;;;;;5055442;28;20052;-77
2020/12/29 06:33:01;;;;;;;18.08;6.10;;;3.10;99.90;;;;;;5046476;28;20032;-77
2020/12/29 06:35:27;;;;;;;17.15;5.50;;;3.20;99.90;;;;;;5051950;28;20025;-77
2020/12/29 06:38:01;;;;;;;15.50;5.20;;;3.10;99.90;;;;;;5052488;28;20033;-77
2020/12/29 06:40:29;;;;;;;5.28;1.88;;;3.20;99.90;;;;;;5034339;28;20044;-77
2020/12/29 06:42:56;;;;;;;4.90;2.03;;;3.20;99.90;;;;;;5052144;28;20029;-77
2020/12/29 06:45:23;;;;;;;9.32;2.78;;;3.10;99.90;;;;;;5034069;28;20096;-77
2020/12/29 06:47:50;;;;;;;10.93;5.65;;;3.10;99.90;;;;;;5051899;28;20036;-77
2020/12/29 06:50:22;;;;;;;10.88;4.55;;;3.20;99.90;;;;;;5033386;28;20041;-77
2020/12/29 06:53:03;;;;;;;2.55;1.60;;;3.20;99.90;;;;;;5052134;28;20626;-77
2020/12/29 06:55:38;;;;;;;9.23;3.83;;;3.30;99.90;;;;;;5034070;28;20045;-77
2020/12/29 06:58:05;;;;;;;12.20;4.70;;;3.30;99.90;;;;;;5034132;28;20041;-77
2020/12/29 07:00:33;;;;;;;1.55;0.55;;;3.20;99.90;;;;;;5034462;28;20048;-76
2020/12/29 07:03:00;;;;;;;1.67;0.60;;;3.20;99.90;;;;;;5052216;28;20044;-78
2020/12/29 07:05:30;;;;;;;3.42;1.63;;;3.20;99.90;;;;;;5051348;28;20378;-77
2020/12/29 07:07:59;;;;;;;4.35;1.52;;;3.20;99.90;;;;;;5051846;28;20029;-78
2020/12/29 07:10:37;;;;;;;3.67;1.75;;;3.10;99.90;;;;;;5065351;28;20044;-78
2020/12/29 07:13:23;;;;;;;9.32;3.47;;;3.20;99.90;;;;;;5070545;28;20359;-78
2020/12/29 07:15:54;;;;;;;2.50;1.55;;;3.30;99.90;;;;;;5034799;28;20386;-76
2020/12/29 07:18:22;;;;;;;4.85;1.23;;;3.20;99.90;;;;;;5055196;28;20466;-77
2020/12/29 07:20:51;;;;;;;2.45;1.42;;;3.30;99.90;;;;;;5057907;28;20036;-77
2020/12/29 07:23:19;;;;;;;6.55;2.35;;;3.20;99.90;;;;;;5055374;28;20021;-77
2020/12/29 07:25:47;;;;;;;3.70;1.50;;;3.30;99.90;;;;;;5048537;28;20041;-77
2020/12/29 07:28:15;;;;;;;2.90;1.48;;;3.20;99.90;;;;;;5052715;28;20028;-77
2020/12/29 07:30:41;;;;;;;6.15;2.10;;;3.30;99.90;;;;;;5054660;28;20049;-77
2020/12/29 07:33:08;;;;;;;3.97;1.17;;;3.30;99.90;;;;;;5047362;28;20047;-78
2020/12/29 07:35:36;;;;;;;7.15;1.85;;;3.30;99.90;;;;;;5081358;28;20036;-79
2020/12/29 07:38:14;;;;;;;2.42;0.93;;;3.30;99.90;;;;;;5090054;28;20493;-79
2020/12/29 07:40:41;;;;;;;5.22;2.38;;;3.30;99.90;;;;;;5084033;28;20036;-77
2020/12/29 07:43:08;;;;;;;11.60;4.00;;;3.30;99.90;;;;;;5091350;28;20028;-78
2020/12/29 07:45:34;;;;;;;3.90;1.50;;;3.30;99.90;;;;;;5081223;28;20039;-79
2020/12/29 07:48:02;;;;;;;4.43;1.27;;;3.30;99.90;;;;;;5078570;28;20047;-77
2020/12/29 07:50:29;;;;;;;24.80;7.35;;;3.30;99.90;;;;;;5075055;28;20367;-78
2020/12/29 07:53:09;;;;;;;345.30;98.07;;;3.30;99.90;;;;;;5078923;28;20020;-78
2020/12/29 07:55:41;;;;;;;67.28;21.58;;;3.30;99.90;;;;;;5089587;28;20033;-79
2020/12/29 07:58:08;;;;;;;153.00;57.63;;;3.40;99.90;;;;;;5078979;28;20032;-78
2020/12/29 08:00:36;;;;;;;180.70;61.47;;;3.40;99.90;;;;;;5085384;28;20039;-78
2020/12/29 08:03:03;;;;;;;27.75;11.70;;;3.40;99.90;;;;;;5088357;28;20107;-79
2020/12/29 08:05:31;;;;;;;4.22;2.10;;;3.50;99.90;;;;;;5075003;28;20048;-77
2020/12/29 08:07:59;;;;;;;4.65;2.53;;;3.50;99.90;;;;;;5074660;28;20032;-77
2020/12/29 08:10:29;;;;;;;3.58;2.50;;;3.60;99.90;;;;;;5074042;28;20033;-76
2020/12/29 08:12:57;;;;;;;50.35;24.88;;;3.60;99.90;;;;;;5074398;28;20060;-77
2020/12/29 08:15:42;;;;;;;101.60;63.85;;;3.60;99.90;;;;;;5076742;28;20265;-77
2020/12/29 08:18:10;;;;;;;5.35;4.85;;;3.70;99.90;;;;;;5074197;28;20040;-77
2020/12/29 08:20:48;;;;;;;3.10;2.03;;;3.60;99.90;;;;;;5080287;28;20025;-77
2020/12/29 08:23:18;;;;;;;3.22;2.60;;;3.70;99.90;;;;;;5087212;28;20040;-77
2020/12/29 08:25:53;;;;;;;3.00;2.03;;;3.70;99.90;;;;;;5075197;28;20036;-76
2020/12/29 08:28:20;;;;;;;8.70;6.30;;;3.70;99.90;;;;;;5088371;28;20036;-76
2020/12/29 08:30:47;;;;;;;2.05;1.30;;;3.70;99.90;;;;;;5064480;28;20045;-76
2020/12/29 08:33:15;;;;;;;5.10;2.50;;;3.80;99.90;;;;;;5035648;28;20064;-78
2020/12/29 08:35:47;;;;;;;3.67;1.83;;;3.70;99.90;;;;;;5053999;28;20025;-76
2020/12/29 08:38:40;;;;;;;25.23;9.80;;;3.70;99.90;;;;;;5053748;28;20025;-77
2020/12/29 08:41:12;;;;;;;3.20;1.80;;;3.80;99.90;;;;;;5053907;28;20466;-77
2020/12/29 08:43:51;;;;;;;5.35;2.95;;;3.70;99.90;;;;;;5054040;28;20470;-77
2020/12/29 08:46:19;;;;;;;10.43;6.63;;;3.80;99.90;;;;;;5035642;28;20052;-77
2020/12/29 08:48:59;;;;;;;3.38;1.50;;;3.70;99.90;;;;;;5053907;28;20029;-77
2020/12/29 08:51:33;;;;;;;3.72;1.63;;;3.70;99.90;;;;;;5053548;28;20459;-77
2020/12/29 08:54:12;;;;;;;35.60;15.98;;;3.70;99.90;;;;;;5053918;28;20385;-76
2020/12/29 08:56:38;;;;;;;3.38;2.50;;;3.70;99.90;;;;;;5053350;28;20040;-83
2020/12/29 08:59:12;;;;;;;5.65;2.55;;;3.70;99.90;;;;;;5051370;28;20470;-78
2020/12/29 09:01:47;;;;;;;4.30;2.65;;;3.70;99.90;;;;;;5053818;28;20495;-77
2020/12/29 09:04:30;;;;;;;2.60;1.17;;;3.80;99.90;;;;;;5053530;28;20374;-76
2020/12/29 09:06:59;;;;;;;2.28;1.20;;;3.80;99.90;;;;;;5063895;28;20036;-76
2020/12/29 09:09:27;;;;;;;3.50;2.00;;;3.80;99.90;;;;;;5046155;28;20488;-77
2020/12/29 09:12:08;;;;;;;3.63;2.83;;;3.70;99.90;;;;;;5072234;28;20037;-77
2020/12/29 09:14:35;;;;;;;3.15;2.33;;;3.70;99.90;;;;;;5063057;28;20478;-78
2020/12/29 09:17:03;;;;;;;2.47;1.40;;;3.70;99.90;;;;;;5053528;28;20025;-87
2020/12/29 09:19:30;;;;;;;2.13;1.00;;;3.80;99.90;;;;;;5066572;28;20036;-80
2020/12/29 09:22:09;;;;;;;1.50;0.88;;;3.80;99.90;;;;;;5056360;28;20048;-77
2020/12/29 09:24:36;;;;;;;2.30;1.15;;;3.90;99.90;;;;;;5053390;28;20378;-78
2020/12/29 09:27:04;;;;;;;1.88;1.13;;;3.90;99.90;;;;;;5052856;28;20367;-77
2020/12/29 09:29:34;;;;;;;2.53;1.00;;;3.90;99.90;;;;;;5053117;28;20040;-77
2020/12/29 09:32:01;;;;;;;4.15;1.63;;;3.90;99.90;;;;;;5053604;28;20040;-77
2020/12/29 09:34:27;;;;;;;1.75;0.98;;;3.90;99.90;;;;;;5055684;28;20111;-77
2020/12/29 09:36:54;;;;;;;1.50;1.08;;;3.90;99.90;;;;;;5055692;28;20025;-78
2020/12/29 09:39:20;;;;;;;4.72;2.70;;;3.90;99.90;;;;;;5067992;28;20040;-78
2020/12/29 09:41:53;;;;;;;2.88;1.50;;;3.90;99.90;;;;;;5053939;28;20021;-78
2020/12/29 09:44:19;;;;;;;2.17;1.17;;;3.90;99.90;;;;;;5052525;28;20033;-78
2020/12/29 09:46:46;;;;;;;2.38;1.33;;;3.90;99.90;;;;;;5052326;28;20041;-78
2020/12/29 09:49:12;;;;;;;5.80;2.58;;;3.90;99.90;;;;;;5052196;28;20025;-78
2020/12/29 09:51:38;;;;;;;1.80;0.70;;;4.00;99.90;;;;;;5018630;28;20083;-77
2020/12/29 09:54:04;;;;;;;1.27;0.63;;;3.90;99.90;;;;;;5052990;28;20032;-78
2020/12/29 09:56:31;;;;;;;2.85;0.80;;;3.90;99.90;;;;;;5052881;28;20030;-78
2020/12/29 09:58:57;;;;;;;1.00;0.52;;;3.90;99.90;;;;;;5050635;28;20040;-77
2020/12/29 10:01:23;;;;;;;4.38;2.05;;;3.90;99.90;;;;;;5051714;28;20041;-78
2020/12/29 10:03:50;;;;;;;3.45;1.38;;;3.90;99.90;;;;;;5060171;28;20024;-77
2020/12/29 10:06:16;;;;;;;2.47;0.93;;;3.90;99.90;;;;;;5050209;28;20493;-77
2020/12/29 10:08:42;;;;;;;3.30;1.70;;;4.00;99.90;;;;;;5052097;28;20021;-77
2020/12/29 10:11:11;;;;;;;4.03;1.52;;;3.90;99.90;;;;;;5052061;28;20044;-78
2020/12/29 10:13:37;;;;;;;2.15;1.10;;;3.90;99.90;;;;;;5034325;28;20041;-77
2020/12/29 10:16:04;;;;;;;1.80;0.70;;;3.90;99.90;;;;;;5052677;28;20025;-77
2020/12/29 10:18:31;;;;;;;1.42;0.57;;;4.00;99.90;;;;;;5052482;28;20040;-77
2020/12/29 10:20:57;;;;;;;1.73;1.00;;;4.00;99.90;;;;;;5052397;28;20104;-77
2020/12/29 10:23:23;;;;;;;1.70;0.80;;;4.00;99.90;;;;;;5051763;28;20028;-77
2020/12/29 10:25:50;;;;;;;2.10;0.85;;;4.00;99.90;;;;;;5051255;28;20063;-77
2020/12/29 10:28:16;;;;;;;2.40;1.25;;;4.00;99.90;;;;;;5052792;28;20021;-77
2020/12/29 10:30:43;;;;;;;3.30;1.20;;;4.00;99.90;;;;;;5067650;28;20048;-77
2020/12/29 10:33:09;;;;;;;2.78;1.45;;;4.00;99.90;;;;;;5077610;28;20055;-78
2020/12/29 10:35:36;;;;;;;3.88;1.90;;;4.10;99.90;;;;;;5072571;28;20040;-77
2020/12/29 10:38:02;;;;;;;3.92;1.98;;;4.10;99.90;;;;;;5079046;28;20024;-78
2020/12/29 10:40:29;;;;;;;2.55;1.23;;;4.10;99.90;;;;;;5087645;28;20469;-78
2020/12/29 10:42:55;;;;;;;2.80;1.25;;;4.20;99.90;;;;;;5072179;28;20037;-78
2020/12/29 10:45:21;;;;;;;2.17;1.35;;;4.20;99.90;;;;;;5091558;28;20036;-77
2020/12/29 10:47:47;;;;;;;2.47;1.45;;;4.20;99.90;;;;;;5073464;28;20033;-78
2020/12/29 10:50:14;;;;;;;3.63;1.60;;;4.20;99.90;;;;;;5071837;28;20024;-78
2020/12/29 10:52:40;;;;;;;2.65;1.08;;;4.10;99.90;;;;;;5074594;28;20290;-77
2020/12/29 10:55:06;;;;;;;2.88;1.00;;;4.10;99.90;;;;;;5076003;28;20028;-79
2020/12/29 10:57:33;;;;;;;2.33;1.33;;;4.20;99.90;;;;;;5078135;28;20024;-77
2020/12/29 10:59:59;;;;;;;4.90;1.83;;;4.10;99.90;;;;;;5075932;28;20036;-78
2020/12/29 11:02:25;;;;;;;3.42;1.88;;;4.20;99.90;;;;;;5090502;28;20036;-77
2020/12/29 11:04:51;;;;;;;3.50;2.50;;;4.30;99.90;;;;;;5084171;28;20031;-78
2020/12/29 11:07:17;;;;;;;2.45;1.58;;;4.30;99.90;;;;;;5083700;28;20024;-78
2020/12/29 11:09:44;;;;;;;2.78;1.88;;;4.40;99.90;;;;;;5085426;28;20040;-77
2020/12/29 11:12:10;;;;;;;4.32;2.13;;;4.40;99.90;;;;;;5075071;28;20048;-78
2020/12/29 11:14:36;;;;;;;4.32;2.03;;;4.40;99.90;;;;;;5085292;28;20489;-78
2020/12/29 11:17:02;;;;;;;2.45;1.50;;;4.40;99.90;;;;;;5084013;28;20033;-77
2020/12/29 11:19:28;;;;;;;3.50;1.70;;;4.40;99.90;;;;;;5084914;28;20031;-77
2020/12/29 11:21:55;;;;;;;2.60;1.48;;;4.40;99.90;;;;;;5079027;28;20057;-78
2020/12/29 11:24:21;;;;;;;3.65;1.15;;;4.50;99.90;;;;;;5075251;28;20380;-78
2020/12/29 11:26:47;;;;;;;3.42;0.93;;;4.60;99.90;;;;;;5075366;28;20032;-78
2020/12/29 11:29:13;;;;;;;2.60;1.30;;;4.70;99.90;;;;;;5074818;28;20036;-78
2020/12/29 11:31:39;;;;;;;3.08;1.48;;;4.70;99.90;;;;;;5058838;28;20390;-77
2020/12/29 11:34:06;;;;;;;2.17;1.40;;;4.80;99.90;;;;;;5055250;28;20029;-77
2020/12/29 11:36:32;;;;;;;4.40;1.73;;;4.80;99.90;;;;;;5055405;28;20040;-77
2020/12/29 11:38:58;;;;;;;1.67;1.10;;;4.80;99.90;;;;;;5054711;28;20045;-77
2020/12/29 11:41:25;;;;;;;1.40;0.90;;;4.80;99.90;;;;;;5051802;28;20047;-77
2020/12/29 11:43:51;;;;;;;3.30;1.30;;;4.80;99.90;;;;;;5055257;28;20036;-78
2020/12/29 11:46:17;;;;;;;2.78;1.17;;;4.80;99.90;;;;;;5054907;28;20029;-79
2020/12/29 11:48:44;;;;;;;2.72;1.10;;;4.70;99.90;;;;;;5060073;28;20028;-78
2020/12/29 11:51:10;;;;;;;2.78;1.08;;;4.70;99.90;;;;;;5070055;28;20024;-79
2020/12/29 11:53:37;;;;;;;2.70;1.02;;;4.70;99.90;;;;;;5055110;28;20040;-79
2020/12/29 11:56:03;;;;;;;2.40;1.13;;;4.80;99.90;;;;;;5054610;28;20029;-79
2020/12/29 11:58:30;;;;;;;3.58;1.48;;;5.00;99.90;;;;;;5054293;28;20045;-78
2020/12/29 12:00:56;;;;;;;2.17;1.15;;;5.30;99.90;;;;;;5055106;28;20044;-78
2020/12/29 12:03:25;;;;;;;1.98;1.10;;;5.80;99.90;;;;;;5054053;28;20037;-79
2020/12/29 12:05:52;;;;;;;4.47;1.00;;;6.00;99.90;;;;;;5054754;28;20033;-78
2020/12/29 12:08:18;;;;;;;2.25;0.95;;;6.20;99.90;;;;;;5054839;28;20027;-79
2020/12/29 12:10:44;;;;;;;2.80;1.25;;;6.30;99.90;;;;;;5036674;28;20047;-79
2020/12/29 12:13:10;;;;;;;2.17;0.95;;;6.20;99.90;;;;;;5054449;28;20048;-79
2020/12/29 12:15:36;;;;;;;3.28;0.80;;;6.20;99.90;;;;;;5054715;28;20033;-79
2020/12/29 12:18:03;;;;;;;3.10;1.15;;;6.20;99.90;;;;;;5054936;28;20453;-79
2020/12/29 12:20:29;;;;;;;3.38;1.00;;;6.10;99.90;;;;;;5054381;28;20036;-79
2020/12/29 12:22:55;;;;;;;2.83;0.80;;;6.00;99.90;;;;;;5054397;28;20389;-78
2020/12/29 12:25:21;;;;;;;2.33;1.02;;;5.80;99.90;;;;;;5053942;28;20025;-79
2020/12/29 12:27:48;;;;;;;2.42;0.88;;;5.80;99.90;;;;;;5054721;28;20033;-79
2020/12/29 12:30:14;;;;;;;4.03;1.10;;;5.70;99.90;;;;;;5053814;28;20052;-79
2020/12/29 12:32:40;;;;;;;1.42;0.90;;;5.70;99.90;;;;;;5052380;28;20049;-79
2020/12/29 12:35:06;;;;;;;1.85;1.15;;;5.60;99.90;;;;;;5054728;28;20473;-79
2020/12/29 12:37:33;;;;;;;5.18;1.10;;;5.50;99.90;;;;;;5068067;28;20047;-79
2020/12/29 12:39:59;;;;;;;2.50;1.00;;;5.50;99.90;;;;;;5055715;28;20031;-79
2020/12/29 12:42:25;;;;;;;2.05;0.98;;;5.50;99.90;;;;;;5054099;28;20032;-79
2020/12/29 12:44:51;;;;;;;2.25;1.15;;;5.50;99.90;;;;;;5070490;28;20029;-79
2020/12/29 12:47:17;;;;;;;2.40;1.38;;;5.40;99.90;;;;;;5039680;28;20041;-79
2020/12/29 12:49:44;;;;;;;5.00;2.28;;;5.40;99.90;;;;;;5053866;28;20025;-79
2020/12/29 12:52:10;;;;;;;6.05;1.40;;;5.40;99.90;;;;;;5053801;28;20399;-79
2020/12/29 12:54:36;;;;;;;3.88;1.10;;;5.30;99.90;;;;;;5054289;28;20033;-79
2020/12/29 12:57:02;;;;;;;4.32;1.77;;;5.40;99.90;;;;;;5069302;28;20480;-79